Time;durP1;ratioP1;P1;durP2;ratioP2;P2;SDS_P1;SDS_P2;PMS_P1;PMS_P2;Temp;Humidity;BMP_temperature;BMP_pressure;BME280_temperature;BME280_humidity;BME280_pressure;Samples;Min_cycle;Max_cycle;Signal;HPM_P1;HPM_P2
2023/04/10 00:04:33;;;;;;;41.00;26.40;;;;;;;10.49;64.16;99769.45;223852;181;137396;-66
2023/04/10 00:09:39;;;;;;;36.60;25.90;;;;;;;10.43;64.11;99767.81;223958;181;145345;-68
2023/04/10 00:14:53;;;;;;;34.80;24.90;;;;;;;10.36;64.21;99768.82;223868;181;138380;-64
2023/04/10 00:19:58;;;;;;;39.00;26.50;;;;;;;10.29;64.25;99766.53;223973;182;137231;-65
2023/04/10 00:25:05;;;;;;;35.20;24.20;;;;;;;10.25;64.37;99758.21;224007;181;145499;-66
2023/04/10 00:30:11;;;;;;;40.10;25.20;;;;;;;10.17;64.56;99749.87;223965;181;138149;-64
2023/04/10 00:35:15;;;;;;;36.30;25.70;;;;;;;10.16;64.66;99744.58;223876;182;138151;-65
2023/04/10 00:40:19;;;;;;;36.30;24.90;;;;;;;10.15;64.89;99741.66;223893;182;145376;-65
2023/04/10 00:45:26;;;;;;;35.00;24.10;;;;;;;10.17;64.85;99750.04;223939;181;139067;-65
2023/04/10 00:50:30;;;;;;;36.70;24.50;;;;;;;10.06;64.98;99762.14;223920;181;136713;-65
2023/04/10 00:55:35;;;;;;;38.90;25.70;;;;;;;9.96;65.35;99760.30;224014;181;144987;-64
2023/04/10 01:00:40;;;;;;;36.20;25.40;;;;;;;9.87;65.51;99761.79;223943;182;138102;-63
2023/04/10 01:06:00;;;;;;;;;;;;;;;9.86;65.75;99760.78;223712;182;138148;-64
2023/04/10 01:11:17;;;;;;;38.40;26.10;;;;;;;9.87;65.81;99759.69;224011;182;147296;-65
2023/04/10 01:16:33;;;;;;;36.70;26.20;;;;;;;9.79;66.00;99756.65;223842;182;139326;-67
2023/04/10 01:21:48;;;;;;;39.70;26.90;;;;;;;9.80;66.10;99753.09;223891;183;137022;-68
2023/04/10 01:27:11;;;;;;;39.50;26.00;;;;;;;9.84;66.18;99755.04;223908;183;145538;-68
2023/04/10 01:32:21;;;;;;;36.30;26.20;;;;;;;9.90;66.29;99742.66;223807;183;141541;-67
2023/04/10 01:37:30;;;;;;;39.20;27.20;;;;;;;10.03;66.09;99739.57;223887;182;137600;-66
2023/04/10 01:42:52;;;;;;;38.70;27.00;;;;;;;10.11;65.85;99741.85;223743;182;145402;-64
2023/04/10 01:47:59;;;;;;;42.10;27.90;;;;;;;10.12;65.76;99746.59;223783;183;140264;-65
2023/04/10 01:53:05;;;;;;;40.60;28.30;;;;;;;10.08;65.77;99744.11;223857;181;137956;-66
2023/04/10 01:58:10;;;;;;;38.90;28.30;;;;;;;10.07;65.89;99744.02;223925;182;145768;-66
2023/04/10 02:03:23;;;;;;;42.80;29.70;;;;;;;10.03;65.97;99747.56;223844;183;137945;-65
2023/04/10 02:08:35;;;;;;;46.20;30.30;;;;;;;9.98;66.11;99743.00;223834;183;137801;-65
2023/04/10 02:13:52;;;;;;;41.50;29.40;;;;;;;9.94;66.17;99749.91;223828;182;145144;-63
2023/04/10 02:19:11;;;;;;;46.60;30.30;;;;;;;9.87;66.36;99750.27;223976;179;140412;-66
2023/04/10 02:24:17;;;;;;;40.80;29.20;;;;;;;9.80;66.68;99746.70;223792;182;137945;-66
2023/04/10 02:29:22;;;;;;;42.20;29.30;;;;;;;9.79;66.85;99746.39;223806;182;145269;-65
2023/04/10 02:34:26;;;;;;;43.60;30.20;;;;;;;9.84;66.93;99743.88;223868;182;138759;-65
2023/04/10 02:39:30;;;;;;;46.80;30.90;;;;;;;9.88;66.76;99748.09;223903;182;136921;-66
2023/04/10 02:44:35;;;;;;;48.80;32.30;;;;;;;9.88;66.83;99751.98;223829;183;145219;-66
2023/04/10 02:49:39;;;;;;;49.10;33.60;;;;;;;9.90;66.82;99753.34;223797;183;137830;-64
2023/04/10 03:42:52;;;;;;;75.00;45.40;;;;;;;9.93;68.38;99733.31;219848;193;665645;-66
2023/04/10 03:47:58;;;;;;;74.40;43.70;;;;;;;9.92;68.39;99731.95;221205;184;137820;-65
2023/04/10 03:53:05;;;;;;;80.80;46.70;;;;;;;9.87;68.60;99740.71;221235;183;151942;-63
2023/04/10 03:58:11;;;;;;;84.80;46.80;;;;;;;9.80;68.87;99742.80;221759;183;140093;-65
2023/04/10 04:03:33;;;;;;;78.80;46.60;;;;;;;9.73;68.99;99753.23;223824;184;136824;-68
2023/04/10 04:08:42;;;;;;;80.30;46.00;;;;;;;9.64;69.33;99752.03;223798;183;143520;-71
2023/04/10 04:14:17;;;;;;;85.70;46.70;;;;;;;9.68;69.64;99747.27;223815;182;138995;-72
2023/04/10 04:19:53;;;;;;;89.50;48.20;;;;;;;9.72;69.75;99746.73;223913;182;136966;-66
2023/04/10 04:25:15;;;;;;;86.90;48.10;;;;;;;9.72;69.76;99746.39;223939;183;143941;-66
2023/04/10 04:30:42;;;;;;;92.20;48.20;;;;;;;9.72;69.83;99752.73;223939;182;138723;-66
2023/04/10 04:35:53;;;;;;;89.20;48.50;;;;;;;9.73;69.93;99756.81;223823;182;140139;-67
2023/04/10 04:43:02;;;;;;;90.30;46.90;;;;;;;9.71;70.14;99762.56;219962;193;666980;-65
2023/04/10 04:48:30;;;;;;;88.60;46.70;;;;;;;9.60;70.45;99769.45;221125;180;137308;-62
2023/04/10 04:53:46;;;;;;;98.00;49.10;;;;;;;9.60;70.88;99774.58;221131;183;146817;-63
2023/04/10 04:59:09;;;;;;;92.70;48.00;;;;;;;9.63;71.07;99779.41;223475;183;139093;-63
2023/04/10 05:04:30;;;;;;;87.60;46.60;;;;;;;9.60;71.07;99782.57;223941;183;136591;-64
2023/04/10 05:09:45;;;;;;;99.80;48.60;;;;;;;9.53;71.43;99786.42;223847;183;143615;-64
2023/04/10 05:15:11;;;;;;;93.90;46.10;;;;;;;9.56;71.72;99786.62;224090;182;140226;-67
2023/04/10 05:20:26;;;;;;;89.30;45.40;;;;;;;9.59;71.89;99792.36;223868;183;139507;-65
2023/04/10 05:25:39;;;;;;;90.20;44.40;;;;;;;9.68;71.83;99793.86;223774;183;143451;-64
2023/04/10 05:31:06;;;;;;;88.90;45.50;;;;;;;9.75;71.72;99793.39;223864;183;140944;-64
2023/04/10 05:36:13;;;;;;;95.20;47.50;;;;;;;9.77;71.61;99797.70;223929;183;137803;-66
2023/04/10 05:41:43;;;;;;;98.20;46.80;;;;;;;9.77;71.76;99806.05;223757;183;145116;-67
2023/04/10 05:47:21;;;;;;;154.40;92.60;;;;;;;9.78;71.83;99802.09;223736;183;141101;-65
2023/04/10 05:52:46;;;;;;;97.00;46.80;;;;;;;9.79;71.97;99796.36;223867;183;139624;-66
2023/04/10 05:58:42;;;;;;;88.20;43.50;;;;;;;9.85;71.94;99797.17;223662;183;145634;-66
2023/04/10 06:03:49;;;;;;;118.50;64.10;;;;;;;9.96;72.00;99793.77;223817;183;138595;-65
2023/04/10 06:08:53;;;;;;;87.50;44.60;;;;;;;10.08;71.73;99796.05;223762;183;136581;-66
2023/04/10 06:14:01;;;;;;;126.20;72.40;;;;;;;10.11;71.56;99794.33;223778;183;145192;-65
2023/04/10 06:19:23;;;;;;;75.30;40.30;;;;;;;10.10;71.73;99797.06;223787;183;138141;-68
2023/04/10 06:24:32;;;;;;;76.00;40.30;;;;;;;10.10;71.63;99794.21;223623;183;137058;-64
2023/04/10 06:29:57;;;;;;;75.60;39.90;;;;;;;10.08;71.70;99802.28;223716;183;145646;-65
2023/04/10 06:36:02;;;;;;;68.90;38.30;;;;;;;10.13;71.80;99807.00;223815;183;138426;-68
2023/04/10 07:44:57;;;;;;;60.40;34.00;;;;;;;10.89;71.03;99794.60;221401;194;665627;-63
2023/04/10 07:50:02;;;;;;;56.20;32.60;;;;;;;10.84;71.24;99804.41;223643;183;136874;-66
2023/04/10 07:55:06;;;;;;;55.20;31.80;;;;;;;10.86;71.21;99808.73;223668;184;143936;-66
2023/04/10 08:00:11;;;;;;;67.30;37.80;;;;;;;10.92;71.42;99805.93;223708;184;139958;-68
2023/04/10 08:42:39;;;;;;;53.70;32.70;;;;;;;11.43;70.76;99812.55;219968;193;666555;-66
2023/04/10 08:47:47;;;;;;;56.20;33.60;;;;;;;11.45;70.46;99816.55;220977;185;136853;-67
2023/04/10 08:52:54;;;;;;;54.70;31.10;;;;;;;11.44;70.53;99810.88;220905;186;144172;-67
2023/04/10 08:57:58;;;;;;;46.60;29.60;;;;;;;11.44;70.59;99808.02;222313;186;140305;-68
2023/04/10 09:03:15;;;;;;;44.90;29.60;;;;;;;11.54;70.93;99806.95;223862;183;136270;-68
2023/04/10 09:08:18;;;;;;;39.10;24.60;;;;;;;11.73;70.96;99799.73;223908;181;143161;-69
2023/04/10 09:13:43;;;;;;;41.10;26.10;;;;;;;11.96;70.47;99795.84;224151;180;138356;-73
2023/04/10 09:18:50;;;;;;;286.80;217.20;;;;;;;12.22;69.96;99796.35;224086;181;136551;-65
2023/04/10 09:24:00;;;;;;;31.90;21.70;;;;;;;12.39;69.75;99793.58;224088;180;144809;-64
2023/04/10 09:29:06;;;;;;;30.00;20.10;;;;;;;12.46;68.93;99792.63;223956;180;138760;-68
2023/04/10 09:34:15;;;;;;;30.70;20.00;;;;;;;12.55;68.35;99790.50;223517;181;137660;-69
2023/04/10 09:39:19;;;;;;;32.30;20.90;;;;;;;12.57;67.84;99788.97;222765;180;146501;-63
2023/04/10 09:44:29;;;;;;;30.70;20.20;;;;;;;12.45;67.49;99784.30;223785;182;138271;-65
2023/04/10 09:49:47;;;;;;;392.60;292.00;;;;;;;12.45;67.89;99780.95;223829;182;138178;-64
2023/04/10 09:54:52;;;;;;;37.20;23.20;;;;;;;12.58;68.03;99777.17;223905;182;145202;-65
2023/04/10 09:59:59;;;;;;;25.90;18.50;;;;;;;12.69;67.62;99771.17;223852;182;138565;-65
2023/04/10 10:05:19;;;;;;;;;;;;;;;;;;;;;
2023/04/10 10:10:24;;;;;;;25.60;18.00;;;;;;;13.02;66.38;99767.23;223914;181;145243;-66
2023/04/10 10:15:50;;;;;;;29.00;19.70;;;;;;;13.03;65.66;99766.09;223709;182;138593;-64
2023/04/10 10:20:55;;;;;;;29.20;19.40;;;;;;;13.10;65.73;99763.06;223884;182;137243;-64
2023/04/10 10:25:59;;;;;;;28.40;19.50;;;;;;;13.17;65.41;99751.19;223786;182;145872;-65
2023/04/10 10:31:06;;;;;;;80.50;57.00;;;;;;;13.23;65.29;99746.90;223761;182;138904;-66
2023/04/10 10:36:12;;;;;;;28.10;18.50;;;;;;;13.31;65.05;99744.11;223904;181;136741;-68
2023/04/10 10:43:23;;;;;;;25.30;18.60;;;;;;;13.33;64.85;99737.04;220031;192;666288;-66
2023/04/10 10:48:27;;;;;;;82.90;62.20;;;;;;;13.47;64.64;99731.21;223670;183;139311;-65
2023/04/10 10:53:43;;;;;;;27.70;18.40;;;;;;;13.68;64.23;99726.31;222340;184;143350;-69
2023/04/10 10:58:56;;;;;;;23.70;16.50;;;;;;;13.96;63.55;99721.13;221159;185;139165;-67
2023/04/10 11:04:00;;;;;;;23.50;16.90;;;;;;;14.32;62.97;99710.34;221379;182;137046;-67
2023/04/10 11:43:12;;;;;;;54.90;32.90;;;;;;;14.41;61.76;99659.21;219885;192;687062;-69
2023/04/10 11:48:16;;;;;;;61.70;36.70;;;;;;;14.38;62.25;99653.34;223939;182;137222;-66
2023/04/10 11:53:20;;;;;;;63.90;37.20;;;;;;;14.27;62.53;99652.29;223804;183;143736;-68
2023/04/10 11:58:26;;;;;;;68.50;38.50;;;;;;;14.27;63.12;99641.79;223825;181;138368;-68
2023/04/10 12:03:41;;;;;;;63.90;36.60;;;;;;;14.30;63.39;99636.56;223952;180;137780;-68
2023/04/10 12:08:48;;;;;;;70.00;37.60;;;;;;;14.61;63.32;99637.37;223941;181;144000;-67
2023/04/10 12:13:55;;;;;;;67.10;35.80;;;;;;;14.77;62.29;99628.52;224000;181;138422;-67
2023/04/10 12:18:59;;;;;;;72.20;39.90;;;;;;;14.63;62.31;99622.39;223933;181;136645;-65
2023/04/10 12:24:02;;;;;;;65.90;37.60;;;;;;;14.67;62.69;99615.81;223953;181;151009;-70
2023/04/10 12:29:06;;;;;;;64.00;34.30;;;;;;;15.11;62.37;99600.75;223951;180;138388;-68
2023/04/10 12:34:17;;;;;;;57.60;32.80;;;;;;;15.29;61.33;99599.13;224002;180;137091;-67
2023/04/10 12:39:23;;;;;;;57.90;33.60;;;;;;;15.12;60.89;99588.86;223925;182;145370;-69
2023/04/10 12:44:26;;;;;;;58.20;34.20;;;;;;;15.17;61.47;99578.19;223882;182;138487;-67
2023/04/10 12:49:29;;;;;;;50.00;30.90;;;;;;;15.80;61.14;99566.73;224004;182;137468;-68
2023/04/10 12:54:35;;;;;;;49.10;30.70;;;;;;;16.30;59.55;99548.40;223939;182;145809;-69
2023/04/10 12:59:41;;;;;;;48.50;28.70;;;;;;;16.90;58.74;99537.30;223925;182;138413;-65
2023/04/10 13:04:45;;;;;;;40.60;24.60;;;;;;;17.06;56.53;99524.91;223866;182;138437;-65
2023/04/10 13:09:49;;;;;;;49.30;29.60;;;;;;;16.55;56.27;99516.20;223871;181;145681;-69
2023/04/10 13:14:53;;;;;;;37.50;23.60;;;;;;;16.40;57.04;99515.80;223908;181;138480;-71
2023/04/10 13:19:56;;;;;;;48.20;28.70;;;;;;;16.73;56.62;99502.23;223815;179;137794;-70
2023/04/10 13:24:59;;;;;;;54.90;32.30;;;;;;;17.14;56.37;99494.98;224007;182;145320;-68
2023/04/10 13:30:02;;;;;;;45.60;27.70;;;;;;;17.11;55.48;99490.80;223961;181;138566;-68
2023/04/10 13:35:07;;;;;;;41.30;26.70;;;;;;;16.92;55.36;99488.75;223834;182;137699;-68
2023/04/10 13:40:10;;;;;;;40.40;25.10;;;;;;;17.26;55.30;99477.69;223968;181;146276;-71
2023/04/10 13:45:14;;;;;;;37.50;22.80;;;;;;;17.85;54.32;99468.48;223930;182;138712;-70
2023/04/10 13:50:18;;;;;;;40.90;24.00;;;;;;;18.22;53.02;99456.13;223884;182;137559;-65
2023/04/10 13:55:21;;;;;;;47.40;28.80;;;;;;;18.36;52.57;99443.06;223933;182;145682;-70
2023/04/10 14:00:25;;;;;;;43.30;26.90;;;;;;;18.68;51.79;99431.75;223854;182;138284;-68
2023/04/10 14:05:28;;;;;;;37.80;24.80;;;;;;;18.89;51.14;99414.41;223949;182;137025;-67
2023/04/10 14:10:31;;;;;;;49.60;30.00;;;;;;;19.26;50.55;99413.01;223893;182;146128;-69
2023/04/10 14:15:35;;;;;;;41.20;26.90;;;;;;;19.37;50.02;99421.54;223925;182;138291;-66
2023/04/10 14:20:41;;;;;;;49.50;29.90;;;;;;;19.21;49.87;99425.88;223884;182;137944;-65
2023/04/10 14:25:44;;;;;;;45.10;28.40;;;;;;;18.74;50.20;99429.77;223850;181;145961;-68
2023/04/10 14:30:52;;;;;;;46.40;28.50;;;;;;;18.27;50.83;99419.42;223852;182;140108;-65
2023/04/10 14:35:59;;;;;;;44.80;26.50;;;;;;;17.80;51.42;99408.17;223860;182;137455;-67
2023/04/10 14:41:04;;;;;;;56.00;32.50;;;;;;;17.28;52.11;99395.80;223808;181;145694;-67
2023/04/10 14:46:08;;;;;;;54.80;34.00;;;;;;;16.92;53.53;99395.17;223855;182;140129;-68
2023/04/10 14:51:13;;;;;;;58.50;36.20;;;;;;;16.59;54.33;99411.30;223843;181;137914;-66
2023/04/10 14:56:45;;;;;;;14.60;10.20;;;;;;;16.21;54.08;99435.60;223744;181;144981;-66
2023/04/10 15:01:52;;;;;;;8.10;3.80;;;;;;;16.03;52.78;99429.50;223799;182;138175;-67
2023/04/10 17:05:36;;;;;;;156.90;99.40;;;;;;;14.79;61.60;99390.48;220113;193;664984;-69
2023/04/10 17:10:39;;;;;;;77.60;40.90;;;;;;;14.72;62.26;99393.47;223863;183;137147;-69
2023/04/10 17:15:43;;;;;;;72.00;40.10;;;;;;;14.62;62.57;99396.38;223712;183;143471;-68
2023/04/10 17:20:47;;;;;;;83.40;44.50;;;;;;;14.54;63.06;99397.71;223596;183;138498;-70
2023/04/10 17:25:50;;;;;;;86.00;46.50;;;;;;;14.44;63.17;99411.73;223763;183;138678;-70
2023/04/10 17:30:54;;;;;;;88.40;45.90;;;;;;;14.34;63.54;99413.75;223686;184;144590;-71
2023/04/10 17:36:04;;;;;;;85.70;45.60;;;;;;;14.24;63.91;99426.92;223768;184;138539;-70
2023/04/10 17:41:12;;;;;;;;;;;;;;;14.14;64.45;99460.97;223643;184;137336;-66
2023/04/10 17:46:16;;;;;;;21.90;12.40;;;;;;;14.00;62.96;99488.17;223840;183;143544;-69
2023/04/10 17:51:19;;;;;;;13.70;8.40;;;;;;;13.72;61.29;99487.22;223735;183;138867;-65
2023/04/10 17:56:23;;;;;;;13.60;7.00;;;;;;;13.44;60.88;99489.81;223675;184;136611;-68
2023/04/10 18:01:28;;;;;;;13.60;6.40;;;;;;;13.17;60.98;99492.50;223467;184;145281;-67
2023/04/10 18:06:32;;;;;;;;;;;;;;;12.91;61.66;99497.73;223638;184;138547;-72
2023/04/10 18:11:35;;;;;;;11.80;5.90;;;;;;;12.71;62.18;99498.33;223705;184;128967;-71
2023/04/10 18:16:39;;;;;;;137.80;93.80;;;;;;;12.61;63.81;99503.42;223672;184;145917;-67
2023/04/10 18:21:50;;;;;;;8.80;5.30;;;;;;;12.61;63.89;99501.29;222514;184;138978;-67
2023/04/10 18:26:55;;;;;;;;;;;;;;;12.52;64.14;99494.52;221195;184;137409;-67
2023/04/10 18:32:06;;;;;;;7.30;4.20;;;;;;;12.45;64.22;99484.98;221284;184;145587;-66
2023/04/10 18:37:10;;;;;;;7.10;3.90;;;;;;;12.50;64.22;99473.42;221120;184;138856;-68
2023/04/10 18:42:14;;;;;;;5.30;3.10;;;;;;;12.52;64.32;99464.05;221219;184;136489;-65
2023/04/10 18:47:17;;;;;;;5.90;3.50;;;;;;;12.55;64.61;99454.67;223760;184;145735;-64
2023/04/10 18:52:21;;;;;;;7.60;3.20;;;;;;;12.63;64.59;99441.30;223750;183;139556;-65
2023/04/10 18:57:25;;;;;;;7.10;4.80;;;;;;;12.59;64.69;99436.23;221327;183;137052;-64
2023/04/10 19:02:29;;;;;;;9.00;4.80;;;;;;;12.45;64.39;99433.20;223894;183;145422;-63
2023/04/10 19:07:33;;;;;;;8.20;5.10;;;;;;;12.29;64.51;99434.73;223824;183;138306;-63
2023/04/10 19:12:36;;;;;;;10.00;5.30;;;;;;;12.19;64.67;99436.63;223731;184;136686;-66
2023/04/10 19:17:42;;;;;;;9.40;5.70;;;;;;;12.01;64.96;99440.25;223749;183;145857;-64
2023/04/10 19:22:46;;;;;;;9.90;5.90;;;;;;;11.86;65.11;99442.20;223780;184;138430;-64
2023/04/10 19:27:50;;;;;;;11.80;6.10;;;;;;;11.73;64.99;99428.01;223816;183;137666;-65
2023/04/10 19:32:54;;;;;;;9.80;5.40;;;;;;;11.73;64.95;99424.66;223811;184;145156;-63
2023/04/10 19:42:51;;;;;;;9.20;5.50;;;;;;;11.83;64.28;99423.50;219761;194;665851;-64
2023/04/10 19:47:55;;;;;;;9.00;5.60;;;;;;;11.76;63.81;99420.21;221145;188;136492;-63
2023/04/10 19:53:00;;;;;;;10.30;5.90;;;;;;;11.64;63.78;99414.53;223291;188;143380;-63
2023/04/10 19:58:04;;;;;;;8.80;5.20;;;;;;;11.45;63.96;99407.88;223842;185;138351;-67
2023/04/10 20:03:26;;;;;;;7.30;4.70;;;;;;;11.32;64.09;99398.81;223850;184;136360;-65
2023/04/10 20:08:30;;;;;;;7.60;4.80;;;;;;;11.23;64.14;99394.81;223806;183;143346;-67
2023/04/10 20:13:34;;;;;;;6.30;4.50;;;;;;;11.11;64.23;99391.20;223777;184;138907;-65
2023/04/10 20:18:37;;;;;;;8.00;4.80;;;;;;;11.10;64.39;99390.55;223715;184;137095;-63
2023/04/10 20:23:41;;;;;;;9.90;5.30;;;;;;;11.02;64.33;99390.13;223761;183;143381;-63
2023/04/10 20:28:45;;;;;;;8.70;4.60;;;;;;;10.91;64.69;99377.09;223817;184;138364;-64
2023/04/10 20:33:48;;;;;;;6.80;3.80;;;;;;;10.90;64.99;99369.17;223764;183;138312;-63
2023/04/10 20:38:52;;;;;;;9.00;5.00;;;;;;;10.92;65.17;99368.39;223884;182;146104;-64
2023/04/10 20:43:57;;;;;;;8.40;4.80;;;;;;;10.85;65.31;99373.53;223945;182;138404;-65
2023/04/10 20:49:01;;;;;;;10.20;5.00;;;;;;;10.77;65.53;99361.77;223933;183;137286;-64
2023/04/10 20:54:07;;;;;;;9.90;6.00;;;;;;;10.74;65.92;99358.05;223973;183;145881;-64
2023/04/10 20:59:11;;;;;;;12.30;6.30;;;;;;;10.68;66.30;99350.39;223894;182;138576;-68
2023/04/10 21:04:14;;;;;;;8.20;5.80;;;;;;;10.60;66.57;99347.64;223866;182;137138;-66
2023/04/10 21:09:17;;;;;;;11.10;6.40;;;;;;;10.54;66.83;99341.48;223983;182;146592;-69
2023/04/10 21:14:21;;;;;;;7.70;5.20;;;;;;;10.45;66.86;99338.23;223941;183;138460;-67
2023/04/10 21:19:24;;;;;;;7.30;5.10;;;;;;;10.39;66.90;99334.83;223979;182;136890;-67
2023/04/10 21:24:27;;;;;;;8.90;5.30;;;;;;;10.36;67.03;99333.23;223996;183;145783;-70
2023/04/10 21:29:30;;;;;;;10.30;6.30;;;;;;;10.40;67.18;99325.00;223893;182;138247;-66
2023/04/10 21:34:33;;;;;;;9.60;6.00;;;;;;;10.41;66.98;99322.11;223956;182;137539;-67
2023/04/10 21:39:39;;;;;;;10.20;6.20;;;;;;;10.39;67.06;99323.84;223963;183;145054;-75
2023/04/10 21:44:43;;;;;;;10.80;6.40;;;;;;;10.42;67.16;99323.83;223991;182;139191;-66
2023/04/10 21:49:46;;;;;;;10.20;7.00;;;;;;;10.40;67.13;99322.36;223986;182;136491;-66
